Portada
METAR-TAF:

METAR-TAF

Aeroports :

Burayda, Aràbia Saudita

latitud: 26-18N, longitud: 043-46E, altitud: 648 m

Observació

L'informe es va fer fa 48 minuts, a les 01:00 UTC
Vent 8 kt del Nord
Temperatura 34°C
Humitat 26%
Pressió 1004 hPa
Visibilitat 10 km o més
Escasses núvols a una alçada de 4000 ft

METAR: OEGS 270100Z 36008KT 9999 FEW040 34/12 Q1004

Hora: 04:48 (01:48 UTC)

Pronòstic

L'informe es va fer fa 2 hores i 48 minuts, a les 23:00 UTC
Pronòstic vàlid del 27 a les 00 UTC al 28 a les 06 UTC
Vent 6 kt del Nord
Visibilitat: 8000 m
Evolucionant progressivament
l' 27 a les 06 UTC al 27 a les 08 UTC
Vent 18 kt del Nord-Est
Temporalment
l' 27 a les 06 UTC al 27 a les 16 UTC
Visibilitat: 3500 m
torb alta de pols
Evolucionant progressivament
l' 27 a les 18 UTC al 27 a les 20 UTC
Vent 8 kt del Nord

TAF: OEGS 262300Z 2700/2806 36006KT 8000 NSC BECMG 2706/2708 04018KT TEMPO 2706/2716 3500 BLDU BECMG 2718/2720 36008KT

Observacions i pronòstics meteorològics de més de 4000 aeroports (METAR i TAF).

Les estacions disponibles són els punts grocs i vermells al mapa.

Posi el ratolí al punt desitjat per veure el nom de l'estació.

Feu clic per veure les observacions i els pronòstics meteorològics.

Per canviar el mapa: feu clic els botons verds amb una creu de color negre per apropar; al botó verd amb un guió per allunyar la imatge; o en les fletxes verdes per a mapes adjacents.


METAR-TAF: